createdAt,value
2023-03-14T00:03:45.448Z,9.22
2023-03-14T00:08:49.452Z,9.18
2023-03-14T00:13:52.049Z,9.15
2023-03-14T00:18:56.384Z,9.05
2023-03-14T00:23:58.131Z,9.04
2023-03-14T00:28:59.881Z,8.96
2023-03-14T00:34:04.100Z,8.95
2023-03-14T00:39:08.144Z,8.94
2023-03-14T00:44:09.846Z,8.91
2023-03-14T00:49:14.020Z,8.90
2023-03-14T00:54:15.879Z,9.01
2023-03-14T00:59:19.769Z,9.19
2023-03-14T01:04:21.502Z,9.28
2023-03-14T01:09:25.522Z,9.37
2023-03-14T01:14:29.688Z,9.41
2023-03-14T01:19:35.809Z,9.61
2023-03-14T01:24:38.432Z,9.76
2023-03-14T01:29:40.415Z,9.83
2023-03-14T01:34:44.972Z,9.87
2023-03-14T01:39:49.146Z,9.93
2023-03-14T01:45:00.136Z,10.02
2023-03-14T01:50:05.486Z,10.05
2023-03-14T01:55:11.235Z,10.10
2023-03-14T02:00:16.205Z,10.08
2023-03-14T02:05:40.641Z,10.04
2023-03-14T02:10:49.379Z,10.08
2023-03-14T02:15:53.569Z,10.14
2023-03-14T02:21:25.377Z,10.14
2023-03-14T02:26:37.859Z,10.07
2023-03-14T02:31:39.778Z,10.04
2023-03-14T02:36:41.577Z,10.05
2023-03-14T02:41:50.273Z,10.05
2023-03-14T02:46:55.482Z,10.03
2023-03-14T02:51:57.326Z,10.02
2023-03-14T02:57:01.550Z,10.02
2023-03-14T03:02:03.295Z,9.88
2023-03-14T03:07:08.342Z,9.74
2023-03-14T03:12:15.560Z,9.64
2023-03-14T03:17:20.441Z,9.54
2023-03-14T03:22:22.535Z,9.40
2023-03-14T03:27:28.978Z,9.28
2023-03-14T03:32:31.377Z,9.22
2023-03-14T03:37:35.925Z,9.08
2023-03-14T03:42:42.372Z,9.06
2023-03-14T03:47:48.375Z,9.04
2023-03-14T03:52:52.461Z,9.01
2023-03-14T03:57:54.297Z,8.96
2023-03-14T04:02:56.057Z,8.89
2023-03-14T04:07:58.551Z,8.83
2023-03-14T04:13:05.364Z,8.94
2023-03-14T04:18:09.435Z,9.01
2023-03-14T04:23:11.317Z,9.06
2023-03-14T04:28:13.230Z,9.11
2023-03-14T04:33:18.329Z,9.11
2023-03-14T04:38:27.096Z,9.12
2023-03-14T04:43:32.057Z,9.08
2023-03-14T04:48:39.317Z,9.09
2023-03-14T04:53:44.255Z,9.12
2023-03-14T04:58:48.680Z,9.19
2023-03-14T05:03:52.625Z,9.14
2023-03-14T05:09:07.049Z,9.13
2023-03-14T05:14:28.472Z,9.07
2023-03-14T05:19:53.136Z,8.98
2023-03-14T05:25:12.241Z,9.02
2023-03-14T05:30:34.792Z,9.04
2023-03-14T05:35:58.729Z,8.98
2023-03-14T05:41:21.402Z,8.71
2023-03-14T05:46:45.126Z,8.59
2023-03-14T05:52:02.719Z,8.59
2023-03-14T05:57:23.429Z,8.63
2023-03-14T06:02:48.403Z,8.66
2023-03-14T06:07:57.336Z,8.64
2023-03-14T06:13:02.775Z,8.42
2023-03-14T06:18:07.027Z,8.53
2023-03-14T06:23:10.490Z,8.57
2023-03-14T06:28:12.343Z,8.57
2023-03-14T06:33:20.073Z,8.55
2023-03-14T06:38:21.988Z,8.45
2023-03-14T06:43:27.536Z,8.28
2023-03-14T06:48:30.071Z,8.14
2023-03-14T06:53:35.035Z,8.08
2023-03-14T06:58:38.607Z,8.07
2023-03-14T07:03:44.288Z,8.09
2023-03-14T07:08:46.484Z,8.08
2023-03-14T07:13:52.090Z,8.13
2023-03-14T07:18:59.116Z,8.23
2023-03-14T07:24:03.462Z,8.23
2023-03-14T07:29:09.632Z,8.22
2023-03-14T07:34:12.081Z,8.17
2023-03-14T07:39:20.271Z,8.09
2023-03-14T07:44:48.236Z,8.04
2023-03-14T07:49:49.990Z,7.68
2023-03-14T07:54:51.673Z,6.17
2023-03-14T07:59:58.174Z,5.23
2023-03-14T08:05:02.331Z,4.98
2023-03-14T08:10:07.097Z,4.43
2023-03-14T08:15:09.291Z,3.93
2023-03-14T08:20:12.687Z,3.86
2023-03-14T08:25:19.493Z,3.48
2023-03-14T08:30:22.274Z,3.09
2023-03-14T08:35:24.834Z,2.97
2023-03-14T08:40:26.581Z,2.83
2023-03-14T08:45:30.585Z,2.92
2023-03-14T08:50:32.295Z,2.91
2023-03-14T08:55:34.096Z,2.86
2023-03-14T09:00:38.213Z,3.12
2023-03-14T09:05:39.890Z,3.03
2023-03-14T09:10:41.746Z,2.96
2023-03-14T09:15:43.506Z,3.13
2023-03-14T09:20:48.796Z,3.30
2023-03-14T09:25:50.454Z,3.43
2023-03-14T09:30:55.456Z,3.69
2023-03-14T09:36:00.021Z,3.82
2023-03-14T09:41:06.520Z,4.22
2023-03-14T09:46:10.487Z,4.47
2023-03-14T09:51:17.985Z,4.45
2023-03-14T09:56:29.291Z,4.61
2023-03-14T10:01:33.451Z,4.70
2023-03-14T10:06:38.115Z,4.87
2023-03-14T10:11:40.822Z,4.84
2023-03-14T10:16:45.087Z,5.14
2023-03-14T10:21:55.044Z,5.58
2023-03-14T10:27:03.876Z,5.66
2023-03-14T10:32:08.855Z,5.53
2023-03-14T10:37:26.786Z,5.49
2023-03-14T10:42:32.764Z,5.40
2023-03-14T10:47:35.336Z,5.37
2023-03-14T10:53:01.475Z,5.49
2023-03-14T10:58:20.120Z,5.83
2023-03-14T11:03:22.959Z,5.93
2023-03-14T11:08:33.226Z,6.31
2023-03-14T11:14:08.242Z,6.52
2023-03-14T11:19:35.745Z,6.53
2023-03-14T11:24:55.293Z,6.36
2023-03-14T11:30:35.172Z,6.28
2023-03-14T11:35:58.755Z,6.63
2023-03-14T11:41:01.412Z,6.70
2023-03-14T11:46:08.854Z,7.09
2023-03-14T11:51:25.488Z,7.31
2023-03-14T11:57:02.416Z,8.01
2023-03-14T12:02:38.456Z,7.98
2023-03-14T12:07:45.366Z,8.55
2023-03-14T12:12:52.283Z,8.33
2023-03-14T12:18:02.445Z,7.89
2023-03-14T12:23:06.764Z,7.64
2023-03-14T12:28:20.265Z,8.62
2023-03-14T12:33:28.058Z,7.75
2023-03-14T12:38:56.230Z,7.87
2023-03-14T12:43:58.021Z,8.07
2023-03-14T12:49:02.742Z,9.99
2023-03-14T12:54:21.621Z,9.46
2023-03-14T12:59:34.840Z,10.31
2023-03-14T13:04:48.633Z,11.19
2023-03-14T13:09:59.935Z,9.64
2023-03-14T13:15:03.453Z,10.11
2023-03-14T13:20:20.619Z,12.16
2023-03-14T13:25:24.615Z,12.52
2023-03-14T13:30:39.221Z,12.52
2023-03-14T13:35:46.063Z,13.56
2023-03-14T13:40:48.352Z,13.58
2023-03-14T13:45:52.400Z,13.46
2023-03-14T13:50:57.224Z,14.76
2023-03-14T13:56:10.285Z,14.97
2023-03-14T14:01:19.587Z,15.11
2023-03-14T14:06:27.655Z,16.47
2023-03-14T14:11:52.938Z,15.39
2023-03-14T14:17:06.431Z,13.83
2023-03-14T14:22:10.119Z,11.51
2023-03-14T14:27:21.614Z,10.68
2023-03-14T14:32:26.595Z,11.01
2023-03-14T14:37:36.317Z,11.06
2023-03-14T14:42:41.487Z,11.04
2023-03-14T14:47:55.114Z,10.71
2023-03-14T14:53:01.070Z,10.07
2023-03-14T14:58:25.700Z,11.51
2023-03-14T15:03:29.993Z,14.02
2023-03-14T15:08:34.532Z,14.98
2023-03-14T15:13:40.807Z,13.58
2023-03-14T15:18:44.030Z,11.82
2023-03-14T15:23:48.171Z,11.92
2023-03-14T15:28:50.180Z,12.18
2023-03-14T15:33:54.126Z,13.33
2023-03-14T15:38:59.880Z,13.31
2023-03-14T15:44:03.968Z,12.11
2023-03-14T15:49:05.752Z,10.08
2023-03-14T15:54:07.477Z,9.44
2023-03-14T15:59:11.451Z,8.81
2023-03-14T16:04:13.470Z,8.17
2023-03-14T16:09:17.833Z,7.90
2023-03-14T16:14:22.367Z,8.00
2023-03-14T16:19:26.741Z,7.04
2023-03-14T16:24:28.834Z,6.78
2023-03-14T16:29:35.294Z,6.56
2023-03-14T16:34:40.381Z,6.25
2023-03-14T16:45:09.549Z,5.85
2023-03-14T16:50:11.493Z,5.34
2023-03-14T16:55:13.184Z,5.51
2023-03-14T17:00:17.569Z,5.52
2023-03-14T17:05:22.535Z,5.28
2023-03-14T17:10:24.969Z,5.09
2023-03-14T17:15:29.018Z,4.83
2023-03-14T17:20:31.079Z,4.61
2023-03-14T17:25:35.248Z,4.46
2023-03-14T17:30:37.003Z,4.39
2023-03-14T17:35:39.001Z,4.51
2023-03-14T17:40:40.721Z,3.82
2023-03-14T17:45:47.157Z,3.59
2023-03-14T17:50:52.902Z,3.44
2023-03-14T17:55:54.706Z,3.14
2023-03-14T18:00:59.271Z,2.87
2023-03-14T18:06:08.072Z,2.88
2023-03-14T18:11:13.413Z,2.84
2023-03-14T18:16:17.500Z,2.83
2023-03-14T18:21:19.251Z,2.77
2023-03-14T18:26:25.667Z,2.72
2023-03-14T18:31:27.466Z,2.87
2023-03-14T18:36:29.217Z,2.88
2023-03-14T18:41:30.981Z,3.02
2023-03-14T18:46:33.001Z,3.08
2023-03-14T18:51:37.230Z,2.87
2023-03-14T18:56:42.841Z,2.59
2023-03-14T19:01:44.629Z,2.43
2023-03-14T19:06:48.868Z,2.35
2023-03-14T19:11:52.943Z,2.23
2023-03-14T19:16:57.037Z,2.19
2023-03-14T19:22:01.590Z,2.14
2023-03-14T19:27:03.375Z,2.01
2023-03-14T19:32:05.346Z,1.95
2023-03-14T19:37:09.758Z,1.92
2023-03-14T19:42:16.311Z,1.88
2023-03-14T19:47:18.025Z,1.85
2023-03-14T19:52:24.472Z,1.89
2023-03-14T19:57:30.519Z,1.89
2023-03-14T20:02:36.890Z,1.81
2023-03-14T20:07:39.827Z,1.56
2023-03-14T20:12:46.872Z,1.39
2023-03-14T20:17:51.251Z,1.29
2023-03-14T20:22:56.094Z,1.29
2023-03-14T20:28:03.003Z,1.39
2023-03-14T20:33:05.179Z,1.53
2023-03-14T20:38:09.548Z,1.70
2023-03-14T20:43:11.218Z,1.78
2023-03-14T20:48:17.932Z,1.56
2023-03-14T20:53:22.223Z,1.26
2023-03-14T20:58:26.465Z,1.05
2023-03-14T21:03:30.888Z,0.83
2023-03-14T21:08:32.929Z,0.71
2023-03-14T21:13:34.686Z,0.65
2023-03-14T21:18:38.997Z,0.53
2023-03-14T21:23:41.163Z,0.43
2023-03-14T21:28:42.930Z,0.37
2023-03-14T21:33:45.045Z,0.27
2023-03-14T21:38:51.958Z,0.22
2023-03-14T21:43:53.771Z,0.13
2023-03-14T21:48:55.481Z,0.09
2023-03-14T21:53:57.411Z,0.06
2023-03-14T21:59:00.077Z,0.03
2023-03-14T22:04:01.784Z,0.01
2023-03-14T22:09:03.674Z,-0.03
2023-03-14T22:14:05.375Z,-0.05
2023-03-14T22:19:09.565Z,-0.04
2023-03-14T22:24:13.588Z,-0.01
2023-03-14T22:29:20.032Z,0.01
2023-03-14T22:34:21.718Z,0.08
2023-03-14T22:39:23.495Z,0.14
2023-03-14T22:44:25.667Z,0.18
2023-03-14T22:49:31.336Z,0.30
2023-03-14T22:54:33.464Z,0.44
2023-03-14T22:59:37.404Z,0.57
2023-03-14T23:04:41.617Z,0.65
2023-03-14T23:09:45.759Z,0.79
2023-03-14T23:14:53.961Z,0.79
2023-03-14T23:20:00.410Z,0.68
2023-03-14T23:25:02.278Z,0.63
2023-03-14T23:30:08.167Z,0.49
2023-03-14T23:35:11.241Z,0.47
2023-03-14T23:40:17.794Z,0.35
2023-03-14T23:45:21.860Z,0.29
2023-03-14T23:50:26.899Z,0.24
2023-03-14T23:55:28.689Z,0.18
